Arkport, New York
Current Conditions -  °F | °C
As of 7:54 PM on Monday 20 Oct 2014 (Local Time) from KDSV Reporting Station
Overcast Overcast  
Wind Chill: 12°   Ceiling: 8500
Heat Index: 12°   Visibility: 10mi
Dew Point:   Wind: 5mph
Humidity: 69%   Direction: 120°ESE
Pressure: 29.85"   Gusts: NA
Location:  42.39°N, 77.7°W
Report Text: KDSV 202354Z AUTO 12004KT 10SM FEW060 OVC085 12/06 A2985 RMK AO2 SLP120 60000 T01170061 10139 20111 53003
Loading
Personal Weather Stations






























Interactive Weather Map
Tropical Storm Tracking
New forecast layout! Learn more

10-Day Weather Forecast

Advertisements
Track Severe Weather on mobile